Latest Weather Observations for Narrabri

IDN60801

Issued at 7:32 am EDT Sunday 7 February 2016 (issued every 30 minutes, with the page automatically refreshed every 10 minutes)

About weather observations | Map of weather stations | Latest weather observations for NSW | Other Formats
Station Details ID: 054038 Name: NARRABRI AIRPORT AWS Lat: -30.32 Lon: 149.83 Height: 229.02 m
Data from the previous 72 hours. | See also: Recent months at Narrabri
Date/Time
EDT
Temp
°C
App
Temp
°C
Dew
Point
Rel
Hum
%
Delta-T
°C
Wind Press
QNH
hPa
Press
MSL
hPa
Rain
since 9 am
mm
Dir
 
Spd
km/h
Gust
km/h
Spd
kts
Gust
kts
07/07:30am 20.2 16.9 11.7 58 4.8 SE 20 30 11 16 1014.9 1013.6 0.8
07/07:00am 20.2 17.1 11.7 58 4.8 SE 19 26 10 14 1014.6 1013.2 0.8
07/06:30am 20.2 17.5 11.7 58 4.8 SE 17 24 9 13 1014.4 1013.0 0.8
07/06:00am 20.2 17.2 11.9 59 4.7 SE 19 24 10 13 1014.1 1012.7 0.8
07/05:30am 20.3 17.7 12.0 59 4.7 SE 17 26 9 14 1013.9 1012.5 0.8
07/05:00am 20.6 17.6 12.1 58 4.8 SSE 19 24 10 13 1013.9 1012.5 0.8
07/04:30am 20.8 18.3 12.2 58 4.9 SSE 17 26 9 14 1013.8 1012.4 0.8
07/04:00am 21.1 18.7 12.5 58 4.9 SE 17 24 9 13 1013.5 1012.1 0.8
07/03:30am 21.4 18.7 12.8 58 4.9 SSE 19 26 10 14 1013.9 1012.5 0.8
07/03:00am 21.5 19.2 12.9 58 5.0 SSE 17 26 9 14 1013.8 1012.4 0.8
07/02:30am 21.8 19.6 13.2 58 5.0 SE 17 24 9 13 1013.8 1012.4 0.8
07/02:00am 22.1 20.4 13.5 58 5.0 SE 15 19 8 10 1014.2 1012.8 0.8
07/01:30am 22.0 21.3 14.4 62 4.5 SSE 11 15 6 8 1014.5 1013.1 0.8
07/01:00am 22.2 22.5 15.1 64 4.3 S 7 9 4 5 1014.8 1013.5 0.8
07/12:30am 22.3 23.6 16.1 68 3.8 SW 4 6 2 3 1014.8 1013.5 0.8
07/12:00am 22.6 22.7 15.4 64 4.3 W 9 11 5 6 1014.7 1013.3 0.8
 
Date/Time
EDT
Temp
°C
App
Temp
°C
Dew
Point
Rel
Hum
%
Delta-T
°C
Wind Press
QNH
hPa
Press
MSL
hPa
Rain
since 9 am
mm
Dir
 
Spd
km/h
Gust
km/h
Spd
kts
Gust
kts
06/11:30pm 23.4 24.5 16.7 66 4.1 SE 6 9 3 5 1014.6 1013.2 0.8
06/11:00pm 23.5 24.6 17.0 67 4.0 E 7 13 4 7 1014.2 1012.8 0.8
06/10:30pm 24.0 23.3 14.4 55 5.7 SE 11 19 6 10 1014.0 1012.6 0.8
06/10:00pm 24.6 23.0 13.8 51 6.4 SE 15 24 8 13 1013.7 1012.3 0.8
06/09:30pm 23.0 24.1 17.9 73 3.2 ENE 9 13 5 7 1013.3 1011.9 0.8
06/09:00pm 23.3 23.4 17.5 70 3.6 E 13 17 7 9 1012.8 1011.4 0.8
06/08:30pm 23.5 23.9 17.3 68 3.9 ENE 11 15 6 8 1012.8 1011.4 0.8
06/08:00pm 24.1 26.1 17.8 68 4.0 ENE 4 7 2 4 1012.3 1010.9 0.8
06/07:30pm 24.7 25.0 15.9 58 5.4 SE 9 13 5 7 1011.9 1010.5 0.8
06/07:00pm 23.7 21.4 15.7 61 4.9 SE 22 33 12 18 1011.7 1010.3 0.8
06/06:30pm 25.1 24.4 16.3 58 5.4 ESE 15 24 8 13 1010.8 1009.4 0.8
06/06:00pm 25.3 23.9 15.6 55 5.9 ESE 17 26 9 14 1010.5 1009.1 0.8
06/05:30pm 24.2 24.5 17.9 68 4.0 S 13 20 7 11 1010.5 1009.1 0.8
06/05:00pm 24.6 24.1 16.8 62 4.9 NE 15 20 8 11 1010.5 1009.1 0.6
06/04:30pm 28.6 28.8 14.1 41 8.8 SSE 6 7 3 4 1010.4 1009.0 0.0
06/04:00pm 29.1 27.4 12.5 36 9.8 S 13 20 7 11 1010.4 1009.0 0.0
06/03:30pm 29.5 27.7 13.3 37 9.7 S 15 22 8 12 1010.6 1009.2 0.0
06/03:00pm 29.6 27.3 12.9 35 10.0 S 17 22 9 12 1010.9 1009.6 0.0
06/02:30pm 29.8 27.3 12.3 34 10.4 SSE 17 26 9 14 1011.2 1009.9 0.0
06/02:00pm 30.6 28.0 13.8 35 10.2 S 20 32 11 17 1011.4 1010.1 0.0
06/01:30pm 30.3 27.0 12.7 34 10.5 S 22 32 12 17 1011.8 1010.4 0.0
06/01:00pm 30.3 27.1 13.1 34 10.3 SSE 22 33 12 18 1012.1 1010.7 0.0
06/12:30pm 29.5 26.5 13.7 38 9.5 S 22 33 12 18 1012.5 1011.1 0.0
06/12:00pm 29.1 26.2 14.1 40 9.1 S 22 33 12 18 1013.0 1011.6 0.0
06/11:30am 27.6 24.3 13.9 43 8.2 S 24 35 13 19 1013.3 1011.9 0.0
06/11:00am 26.3 23.2 14.4 48 7.2 SSE 24 33 13 18 1013.7 1012.3 0.0
06/10:30am 25.3 22.0 14.1 50 6.7 SE 24 37 13 20 1013.7 1012.3 0.0
06/10:00am 24.3 21.0 14.1 53 6.1 SE 24 33 13 18 1013.7 1012.3 0.0
06/09:30am 23.4 20.6 14.4 57 5.4 SE 22 32 12 17 1013.9 1012.5 0.0
06/09:00am 22.5 19.5 14.9 62 4.5 SE 24 35 13 19 1014.0 1012.6 0.0
06/08:30am 21.1 18.4 14.5 66 3.9 SE 22 35 12 19 1013.7 1012.3 0.0
06/08:00am 19.5 16.2 14.1 71 3.1 SSE 24 37 13 20 1013.7 1012.3 0.0
06/07:30am 18.3 15.3 13.8 75 2.6 SSE 22 33 12 18 1013.4 1012.0 0.0
06/07:00am 17.5 14.1 13.6 78 2.2 SSE 24 35 13 19 1013.0 1011.6 0.0
06/06:30am 17.3 14.3 13.6 79 2.1 SE 22 35 12 19 1012.7 1011.3 0.0
06/06:00am 17.5 14.1 13.6 78 2.2 SE 24 35 13 19 1012.2 1010.8 0.0
06/05:30am 17.7 13.9 13.6 77 2.3 SSE 26 35 14 19 1012.2 1010.8 0.0
06/05:00am 17.8 14.3 13.3 75 2.6 SE 24 35 13 19 1012.1 1010.7 0.0
06/04:30am 17.9 15.7 13.2 74 2.7 SE 17 22 9 12 1012.2 1010.8 0.0
06/04:00am 18.3 15.5 13.2 72 2.9 SSE 20 28 11 15 1012.2 1010.8 0.0
06/03:30am 18.4 15.8 13.1 71 3.0 SSE 19 28 10 15 1012.4 1011.0 0.0
06/03:00am 18.5 15.7 13.1 71 3.1 SSE 20 28 11 15 1012.4 1011.0 0.0
06/02:30am 18.7 16.1 13.1 70 3.2 SSE 19 24 10 13 1012.8 1011.4 0.0
06/02:00am 19.1 16.8 13.1 68 3.4 SSE 17 26 9 14 1013.1 1011.7 0.0
06/01:30am 19.3 16.1 13.0 67 3.6 SSE 22 32 12 17 1012.9 1011.5 0.0
06/01:00am 19.6 16.8 13.1 66 3.7 SSE 20 30 11 16 1013.2 1011.8 0.0
06/12:30am 20.0 16.8 13.0 64 4.0 SSE 22 30 12 16 1013.3 1011.9 0.0
06/12:00am 20.4 17.2 13.1 63 4.2 SSE 22 32 12 17 1013.2 1011.8 0.0
 
Date/Time
EDT
Temp
°C
App
Temp
°C
Dew
Point
Rel
Hum
%
Delta-T
°C
Wind Press
QNH
hPa
Press
MSL
hPa
Rain
since 9 am
mm
Dir
 
Spd
km/h
Gust
km/h
Spd
kts
Gust
kts
05/11:30pm 20.8 17.3 13.3 62 4.3 SSE 24 33 13 18 1013.1 1011.7 0.0
05/11:00pm 21.1 17.2 13.3 61 4.5 SSE 26 41 14 22 1013.1 1011.7 0.0
05/10:30pm 21.6 17.3 13.2 59 4.9 SSE 28 39 15 21 1013.1 1011.7 0.0
05/10:12pm 21.9 17.6 13.3 58 5.0 SSE 28 46 15 25 1012.9 1011.5 0.0
05/10:00pm 22.1 17.5 13.5 58 5.0 SSE 30 43 16 23 1012.9 1011.5 0.0
05/09:51pm 22.3 18.1 13.4 57 5.2 SSE 28 46 15 25 1012.7 1011.3 0.0
05/09:30pm 22.8 18.5 13.3 55 5.5 SSE 28 41 15 22 1012.5 1011.1 0.0
05/09:20pm 23.0 17.9 13.2 54 5.7 SSE 32 50 17 27 1012.3 1010.9 0.0
05/09:00pm 23.5 18.5 13.4 53 5.9 SSE 32 48 17 26 1012.0 1010.6 0.0
05/08:50pm 23.6 19.0 13.5 53 5.9 SSE 30 48 16 26 1011.8 1010.4 0.0
05/08:30pm 24.0 18.8 13.5 52 6.2 SSE 33 50 18 27 1011.3 1010.0 0.0
05/08:13pm 24.5 20.4 13.7 51 6.4 SSE 28 46 15 25 1010.9 1009.6 0.0
05/08:00pm 24.9 20.0 13.8 50 6.6 SSE 32 46 17 25 1010.6 1009.2 0.0
05/07:36pm 25.7 21.6 13.9 48 7.0 SSE 28 48 15 26 1010.3 1008.9 0.0
05/07:30pm 25.9 21.5 14.1 48 7.1 SSE 30 44 16 24 1010.3 1008.9 0.0
05/07:19pm 26.3 21.4 13.8 46 7.5 SSE 32 52 17 28 1010.1 1008.7 0.0
05/07:00pm 27.2 22.3 14.2 44 7.9 SSE 33 50 18 27 1009.8 1008.4 0.0
05/06:31pm 28.1 23.4 14.3 42 8.4 SSE 32 50 17 27 1009.3 1007.9 0.0
05/06:30pm 28.3 24.0 14.5 43 8.4 SSE 30 46 16 25 1009.3 1007.9 0.0
05/06:09pm 28.4 23.0 13.9 41 8.7 SSE 35 54 19 29 1009.1 1007.7 0.0
05/06:00pm 28.5 23.1 14.0 41 8.8 SSE 35 50 19 27 1009.0 1007.6 0.0
05/05:30pm 29.2 24.0 14.6 41 8.9 SSE 35 54 19 29 1008.9 1007.5 0.0
05/05:00pm 29.7 24.9 13.9 38 9.6 SSE 32 52 17 28 1009.0 1007.6 0.0
05/04:49pm 29.7 24.7 13.9 38 9.6 SSE 33 54 18 29 1009.1 1007.7 0.0
05/04:30pm 30.1 24.8 14.2 38 9.7 SSE 35 50 19 27 1009.1 1007.7 0.0
05/04:17pm 30.8 26.4 15.2 38 9.7 SSE 32 48 17 26 1009.3 1007.9 0.0
05/04:00pm 30.3 25.5 14.0 37 9.9 SSE 32 43 17 23 1009.4 1008.0 0.0
05/03:30pm 30.3 25.3 14.0 37 9.9 SSE 33 44 18 24 1009.6 1008.2 0.0
05/03:16pm 30.6 26.7 14.3 37 10.0 SSE 28 46 15 25 1009.7 1008.3 0.0
05/03:00pm 30.9 27.0 14.5 37 10.1 SSE 28 39 15 21 1009.9 1008.5 0.0
05/02:30pm 29.5 25.8 14.9 41 9.0 SSE 28 37 15 20 1010.5 1009.1 0.0
05/02:00pm 29.8 25.9 15.5 42 8.9 SSE 30 44 16 24 1010.9 1009.6 0.0
05/01:30pm 29.8 26.5 14.0 38 9.6 SE 24 43 13 23 1011.1 1009.8 0.0
05/01:00pm 29.2 26.0 14.2 40 9.1 SSE 24 39 13 21 1011.4 1010.1 0.0
05/12:43pm 28.5 23.8 13.2 39 9.1 SE 30 56 16 30 1011.4 1010.1 0.0
05/12:30pm 28.3 25.1 14.2 42 8.5 SE 24 44 13 24 1011.7 1010.3 0.0
05/12:00pm 27.8 25.0 13.3 40 8.6 SE 20 33 11 18 1012.0 1010.6 0.0
05/11:30am 26.7 22.5 13.4 43 7.9 SE 28 41 15 22 1012.1 1010.7 0.0
05/11:03am 25.2 20.8 14.0 49 6.7 SE 30 48 16 26 1012.1 1010.7 0.0
05/11:00am 25.1 21.0 13.9 49 6.7 SE 28 43 15 23 1012.2 1010.8 0.0
05/10:30am 25.1 21.6 14.6 52 6.3 SE 26 37 14 20 1012.2 1010.8 0.0
05/10:00am 23.5 19.4 13.7 54 5.8 SE 28 41 15 22 1012.2 1010.8 0.0
05/09:30am 22.3 18.4 13.4 57 5.2 SSE 26 41 14 22 1012.1 1010.7 0.0
05/09:00am 21.4 16.9 13.8 62 4.4 SE 30 44 16 24 1012.0 1010.6 0.0
05/08:30am 20.6 16.7 13.3 63 4.2 SE 26 37 14 20 1012.0 1010.6 0.0
05/08:00am 19.7 16.1 13.2 66 3.7 SE 24 37 13 20 1011.8 1010.4 0.0
05/07:30am 18.8 15.6 13.0 69 3.3 SE 22 39 12 21 1011.5 1010.2 0.0
05/07:00am 18.1 14.5 13.0 72 2.9 SE 24 35 13 19 1011.1 1009.8 0.0
05/06:30am 17.8 14.9 12.9 73 2.8 SE 20 30 11 16 1010.9 1009.6 0.0
05/06:00am 17.9 15.0 13.0 73 2.8 SSE 20 32 11 17 1010.6 1009.2 0.0
05/05:30am 17.9 15.0 13.0 73 2.8 SSE 20 28 11 15 1010.3 1008.9 0.0
05/05:00am 18.1 15.3 13.2 73 2.8 SE 20 33 11 18 1010.0 1008.6 0.0
05/04:30am 18.3 15.1 13.2 72 2.9 SE 22 35 12 19 1010.0 1008.6 0.0
05/04:00am 18.6 14.7 13.2 71 3.1 SSE 26 39 14 21 1010.0 1008.6 0.0
05/03:30am 18.8 15.7 13.4 71 3.1 SE 22 37 12 20 1010.1 1008.7 0.0
05/03:00am 18.9 15.8 13.5 71 3.1 SE 22 35 12 19 1010.2 1008.8 0.0
05/02:30am 19.1 16.4 13.5 70 3.2 SE 20 28 11 15 1010.1 1008.7 0.0
05/02:00am 19.5 16.0 13.4 68 3.5 SSE 24 43 13 23 1010.4 1009.0 0.0
05/01:30am 19.7 16.3 13.6 68 3.5 SSE 24 39 13 21 1010.6 1009.2 0.0
05/01:00am 20.1 16.7 13.8 67 3.7 SSE 24 39 13 21 1010.9 1009.6 0.0
05/12:30am 20.5 16.8 13.9 66 3.8 SSE 26 39 14 21 1011.0 1009.7 0.0
05/12:00am 20.8 17.1 14.0 65 4.0 SSE 26 37 14 20 1011.0 1009.7 0.0
 
Date/Time
EDT
Temp
°C
App
Temp
°C
Dew
Point
Rel
Hum
%
Delta-T
°C
Wind Press
QNH
hPa
Press
MSL
hPa
Rain
since 9 am
mm
Dir
 
Spd
km/h
Gust
km/h
Spd
kts
Gust
kts
04/11:30pm 21.0 17.9 14.4 66 3.9 SSE 24 39 13 21 1010.7 1009.3 0.0
04/11:04pm 21.4 17.6 14.6 65 4.0 SSE 28 46 15 25 1010.3 1008.9 0.0
04/11:00pm 21.3 17.8 14.5 65 4.0 SSE 26 37 14 20 1010.2 1008.8 0.0
04/10:51pm 21.4 17.6 14.6 65 4.0 SSE 28 46 15 25 1010.1 1008.7 0.0
04/10:30pm 21.7 17.5 14.6 64 4.2 SE 30 43 16 23 1009.8 1008.4 0.0
04/10:00pm 22.1 17.3 14.7 63 4.4 SE 33 50 18 27 1009.3 1007.9 0.0
04/09:30pm 22.7 18.1 15.0 61 4.6 SE 33 52 18 28 1008.7 1007.3 0.0
04/09:00pm 23.0 18.4 15.1 61 4.8 SE 33 52 18 28 1008.2 1006.8 0.0
04/08:45pm 23.5 19.0 15.5 60 4.9 SSE 33 54 18 29 1008.0 1006.6 0.0
04/08:30pm 23.9 19.7 15.7 60 5.0 SSE 32 46 17 25 1007.8 1006.4 0.0
04/08:00pm 24.9 20.1 15.5 56 5.7 SSE 35 54 19 29 1007.0 1005.7 0.0
04/07:30pm 26.2 21.4 15.6 52 6.5 SSE 35 54 19 29 1006.6 1005.2 0.0
04/07:21pm 26.5 22.2 15.5 50 6.8 SSE 32 50 17 27 1006.5 1005.1 0.0
04/07:00pm 27.1 22.4 15.8 50 7.0 SSE 35 52 19 28 1006.0 1004.6 0.0
04/06:30pm 27.8 22.7 15.8 48 7.4 SSE 37 57 20 31 1005.5 1004.1 0.0
04/06:00pm 28.6 23.3 16.2 47 7.8 SSE 39 57 21 31 1005.3 1003.9 0.0
04/05:44pm 29.3 25.2 16.5 46 8.1 SE 33 52 18 28 1005.3 1003.9 0.0
04/05:30pm 29.3 24.7 16.1 44 8.3 SSE 35 52 19 28 1005.2 1003.8 0.0
04/05:00pm 29.6 25.1 16.4 45 8.3 SSE 35 54 19 29 1005.1 1003.7 0.0
04/04:30pm 30.4 26.4 16.8 44 8.6 SSE 33 52 18 28 1005.1 1003.7 0.0
04/04:23pm 30.7 27.0 17.4 45 8.5 SSE 33 52 18 28 1005.2 1003.8 0.0
04/04:00pm 30.7 27.3 16.7 43 8.9 SSE 30 46 16 25 1005.2 1003.8 0.0
04/03:40pm 31.0 27.2 16.6 42 9.1 SSE 32 50 17 27 1005.3 1003.9 0.0
04/03:30pm 31.1 27.4 17.0 42 9.0 SSE 32 44 17 24 1005.4 1004.0 0.0
04/03:00pm 31.3 27.6 16.1 40 9.6 SE 30 48 16 26 1005.6 1004.2 0.0
04/02:53pm 31.6 28.1 15.5 37 10.1 SSE 28 48 15 26 1005.6 1004.2 0.0
04/02:30pm 31.2 28.6 16.8 42 9.2 SE 26 39 14 21 1005.8 1004.4 0.0
04/02:00pm 31.2 28.7 17.1 42 9.0 SE 26 39 14 21 1006.0 1004.6 0.0
04/01:31pm 30.9 28.1 17.2 43 8.8 SE 28 46 15 25 1006.2 1004.8 0.0
04/01:30pm 31.1 28.7 17.4 44 8.8 SE 26 46 14 25 1006.1 1004.7 0.0
04/01:00pm 30.4 27.8 17.8 46 8.1 SSE 28 46 15 25 1006.4 1005.0 0.0
04/12:35pm 29.7 27.0 17.5 48 7.8 SSE 28 48 15 26 1006.4 1005.0 0.0
04/12:30pm 29.4 27.9 18.5 52 7.1 SSE 24 39 13 21 1006.4 1005.0 0.0
04/12:00pm 29.2 26.8 18.3 51 7.1 SSE 28 46 15 25 1006.4 1005.0 0.0
04/11:53am 28.7 26.0 17.6 51 7.1 SE 28 46 15 25 1006.4 1005.0 0.0
04/11:30am 28.8 25.8 17.7 51 7.1 SE 30 41 16 22 1006.5 1005.1 0.0
04/11:00am 28.3 25.3 17.8 53 6.7 SSE 30 43 16 23 1006.5 1005.1 0.0
04/10:30am 28.0 25.6 19.2 58 5.7 SSE 30 48 16 26 1006.4 1005.0 0.0
04/10:29am 27.9 25.8 18.9 58 5.8 SSE 28 48 15 26 1006.4 1005.0 0.0
04/10:00am 27.1 25.3 18.7 60 5.4 SSE 26 33 14 18 1006.4 1005.0 0.0
04/09:30am 26.7 24.9 18.8 62 5.1 SSE 26 35 14 19 1006.3 1004.9 0.0
04/09:00am 26.1 25.1 19.7 68 4.2 SE 24 35 13 19 1006.1 1004.7 16.0
04/08:30am 24.8 24.4 19.4 72 3.5 SE 20 33 11 18 1006.0 1004.6 16.0
04/08:00am 23.7 23.5 19.4 77 2.8 SE 19 32 10 17 1005.9 1004.5 16.0

Other Formats:

Comma delimited format used in spreadsheet applications
http://www.bom.gov.au/fwo/IDN60801/IDN60801.95734.axf

JavaScript Object Notation format (JSON) in row-major order
http://www.bom.gov.au/fwo/IDN60801/IDN60801.95734.json